createdAt,value
2023-04-22T00:00:03.208Z,40.67
2023-04-22T00:02:37.535Z,40.72
2023-04-22T00:05:20.669Z,40.67
2023-04-22T00:07:54.279Z,40.79
2023-04-22T00:10:25.122Z,40.46
2023-04-22T00:13:02.914Z,40.74
2023-04-22T00:15:31.921Z,40.65
2023-04-22T00:18:05.678Z,40.46
2023-04-22T00:20:37.781Z,40.76
2023-04-22T00:23:06.777Z,40.28
2023-04-22T00:25:44.281Z,40.76
2023-04-22T00:28:17.232Z,40.39
2023-04-22T00:30:55.232Z,40.59
2023-04-22T00:33:29.816Z,40.46
2023-04-22T00:36:19.633Z,40.56
2023-04-22T00:38:55.220Z,40.40
2023-04-22T00:41:39.888Z,40.17
2023-04-22T00:44:13.889Z,39.76
2023-04-22T00:46:45.480Z,40.00
2023-04-22T00:49:14.848Z,39.86
2023-04-22T00:51:53.876Z,40.10
2023-04-22T00:54:27.372Z,39.52
2023-04-22T00:57:01.181Z,39.95
2023-04-22T00:59:33.469Z,40.11
2023-04-22T01:02:06.426Z,39.76
2023-04-22T01:04:38.435Z,39.95
2023-04-22T01:07:09.457Z,39.23
2023-04-22T01:09:50.322Z,39.91
2023-04-22T01:12:22.177Z,38.93
2023-04-22T01:14:53.127Z,39.79
2023-04-22T01:17:27.268Z,38.32
2023-04-22T01:19:59.403Z,38.73
2023-04-22T01:22:30.801Z,39.43
2023-04-22T01:25:08.664Z,39.49
2023-04-22T01:27:44.399Z,39.15
2023-04-22T01:30:17.097Z,38.66
2023-04-22T01:32:48.977Z,38.35
2023-04-22T01:35:27.587Z,39.22
2023-04-22T01:38:08.346Z,38.18
2023-04-22T01:40:43.482Z,38.90
2023-04-22T01:43:20.667Z,38.96
2023-04-22T01:45:56.443Z,38.36
2023-04-22T01:48:31.654Z,37.99
2023-04-22T01:51:02.808Z,38.52
2023-04-22T01:53:37.236Z,38.29
2023-04-22T01:56:11.343Z,38.44
2023-04-22T01:58:44.834Z,38.55
2023-04-22T02:01:14.708Z,38.64
2023-04-22T02:03:44.500Z,38.01
2023-04-22T02:06:13.772Z,38.12
2023-04-22T02:08:49.320Z,38.51
2023-04-22T02:11:25.172Z,37.41
2023-04-22T02:14:07.314Z,38.15
2023-04-22T02:16:43.031Z,37.75
2023-04-22T02:19:16.421Z,37.49
2023-04-22T02:21:53.707Z,37.29
2023-04-22T02:24:24.447Z,38.04
2023-04-22T02:27:06.553Z,37.21
2023-04-22T02:29:39.222Z,38.07
2023-04-22T02:32:12.730Z,37.88
2023-04-22T02:34:44.497Z,37.53
2023-04-22T02:37:29.357Z,36.75
2023-04-22T02:40:07.772Z,36.86
2023-04-22T02:42:43.019Z,37.25
2023-04-22T02:45:22.713Z,37.96
2023-04-22T02:47:55.562Z,37.60
2023-04-22T02:50:31.699Z,37.28
2023-04-22T02:53:05.710Z,37.46
2023-04-22T02:55:41.418Z,36.84
2023-04-22T02:58:18.696Z,37.27
2023-04-22T03:00:50.846Z,36.84
2023-04-22T03:03:22.992Z,36.80
2023-04-22T03:06:00.788Z,36.42
2023-04-22T03:08:54.011Z,36.13
2023-04-22T03:11:28.781Z,36.24
2023-04-22T03:14:02.612Z,36.42
2023-04-22T03:16:37.754Z,36.11
2023-04-22T03:19:12.854Z,35.96
2023-04-22T03:21:42.161Z,36.26
2023-04-22T03:24:16.052Z,35.84
2023-04-22T03:26:52.686Z,36.00
2023-04-22T03:29:25.315Z,36.14
2023-04-22T03:32:04.971Z,36.04
2023-04-22T03:34:41.530Z,35.85
2023-04-22T03:37:13.507Z,36.01
2023-04-22T03:39:54.484Z,35.79
2023-04-22T03:42:23.780Z,35.84
2023-04-22T03:45:01.801Z,35.83
2023-04-22T03:47:35.603Z,35.61
2023-04-22T03:50:12.985Z,35.99
2023-04-22T03:52:45.872Z,36.15
2023-04-22T03:55:19.779Z,36.28
2023-04-22T03:57:59.824Z,35.79
2023-04-22T04:00:43.874Z,35.65
2023-04-22T04:03:30.441Z,35.43
2023-04-22T04:06:05.760Z,35.67
2023-04-22T04:08:38.082Z,35.53
2023-04-22T04:11:07.609Z,35.61
2023-04-22T04:13:39.252Z,35.76
2023-04-22T04:16:14.557Z,35.80
2023-04-22T04:18:46.342Z,36.06
2023-04-22T04:21:29.494Z,35.66
2023-04-22T04:24:04.621Z,35.58
2023-04-22T04:26:42.632Z,35.39
2023-04-22T04:29:14.092Z,35.66
2023-04-22T04:31:47.843Z,35.69
2023-04-22T04:34:18.017Z,35.49
2023-04-22T04:37:05.460Z,36.19
2023-04-22T04:39:44.803Z,36.26
2023-04-22T04:42:20.125Z,37.14
2023-04-22T04:44:53.880Z,37.01
2023-04-22T04:47:33.217Z,37.34
2023-04-22T04:50:10.522Z,37.54
2023-04-22T04:52:41.769Z,37.76
2023-04-22T04:55:13.968Z,37.77
2023-04-22T04:57:51.165Z,37.91
2023-04-22T05:00:20.993Z,37.81
2023-04-22T05:02:52.133Z,37.38
2023-04-22T05:05:24.366Z,37.76
2023-04-22T05:08:06.698Z,38.00
2023-04-22T05:10:37.841Z,38.10
2023-04-22T05:13:11.743Z,37.94
2023-04-22T05:15:48.635Z,37.90
2023-04-22T05:18:20.907Z,37.89
2023-04-22T05:20:49.266Z,37.73
2023-04-22T05:23:17.607Z,38.24
2023-04-22T05:25:46.057Z,38.15
2023-04-22T05:28:14.435Z,37.86
2023-04-22T05:30:42.746Z,37.99
2023-04-22T05:33:11.171Z,38.16
2023-04-22T05:35:41.007Z,38.19
2023-04-22T05:38:09.403Z,37.96
2023-04-22T05:40:37.801Z,37.90
2023-04-22T05:43:06.414Z,38.20
2023-04-22T05:45:35.420Z,37.94
2023-04-22T05:48:03.890Z,37.93
2023-04-22T05:50:32.295Z,38.20
2023-04-22T05:53:02.031Z,38.08
2023-04-22T05:55:30.363Z,38.34
2023-04-22T05:57:58.794Z,38.28
2023-04-22T06:00:27.422Z,38.28
2023-04-22T06:02:55.925Z,38.19
2023-04-22T06:05:24.547Z,38.29
2023-04-22T06:07:53.036Z,38.31
2023-04-22T06:10:23.022Z,38.57
2023-04-22T06:12:51.344Z,38.86
2023-04-22T06:15:20.038Z,39.09
2023-04-22T06:17:49.535Z,38.44
2023-04-22T06:20:17.983Z,38.26
2023-04-22T06:22:46.409Z,38.68
2023-04-22T06:25:14.821Z,38.09
2023-04-22T06:27:44.607Z,38.44
2023-04-22T06:30:13.638Z,38.28
2023-04-22T06:32:42.116Z,38.07
2023-04-22T06:35:11.198Z,38.37
2023-04-22T06:37:39.631Z,38.14
2023-04-22T06:40:10.147Z,38.67
2023-04-22T06:42:38.817Z,38.82
2023-04-22T06:45:13.042Z,38.24
2023-04-22T06:47:41.538Z,38.06
2023-04-22T06:50:11.446Z,38.37
2023-04-22T06:52:39.790Z,37.95
2023-04-22T06:55:08.948Z,38.81
2023-04-22T06:57:37.377Z,38.51
2023-04-22T07:00:11.283Z,38.18
2023-04-22T07:02:41.198Z,38.56
2023-04-22T07:05:10.169Z,38.47
2023-04-22T07:07:38.651Z,38.62
2023-04-22T07:10:08.017Z,38.64
2023-04-22T07:12:36.424Z,38.42
2023-04-22T07:15:05.236Z,38.31
2023-04-22T07:17:33.620Z,38.48
2023-04-22T07:20:04.097Z,37.96
2023-04-22T07:22:32.415Z,37.82
2023-04-22T07:25:00.887Z,38.19
2023-04-22T07:27:29.350Z,38.22
2023-04-22T07:29:57.792Z,38.31
2023-04-22T07:32:26.284Z,38.44
2023-04-22T07:34:54.658Z,38.21
2023-04-22T07:37:24.578Z,38.09
2023-04-22T07:39:52.962Z,38.21
2023-04-22T07:42:21.639Z,38.23
2023-04-22T07:44:49.966Z,37.95
2023-04-22T07:47:18.369Z,37.82
2023-04-22T07:49:46.998Z,37.82
2023-04-22T07:52:15.369Z,37.82
2023-04-22T07:54:45.114Z,38.28
2023-04-22T07:57:13.448Z,37.92
2023-04-22T07:59:42.031Z,37.64
2023-04-22T08:02:10.581Z,37.99
2023-04-22T08:04:39.143Z,38.16
2023-04-22T08:07:30.477Z,38.44
2023-04-22T08:09:57.797Z,38.15
2023-04-22T08:12:26.286Z,38.20
2023-04-22T08:14:54.654Z,38.25
2023-04-22T08:17:23.090Z,38.39
2023-04-22T08:19:51.559Z,38.36
2023-04-22T08:22:19.921Z,38.37
2023-04-22T08:24:48.266Z,38.37
2023-04-22T08:27:19.306Z,38.17
2023-04-22T08:29:47.703Z,38.44
2023-04-22T08:32:16.145Z,38.32
2023-04-22T08:34:44.560Z,38.56
2023-04-22T08:37:12.943Z,38.58
2023-04-22T08:39:41.563Z,38.56
2023-04-22T08:42:10.420Z,38.69
2023-04-22T08:44:40.225Z,39.01
2023-04-22T08:47:08.767Z,38.95
2023-04-22T08:49:37.560Z,39.09
2023-04-22T08:52:06.388Z,38.83
2023-04-22T08:54:37.379Z,39.07
2023-04-22T08:57:05.980Z,39.25
2023-04-22T08:59:34.368Z,39.14
2023-04-22T09:02:04.299Z,39.14
2023-04-22T09:04:32.972Z,38.81
2023-04-22T09:07:01.464Z,38.80
2023-04-22T09:09:30.848Z,38.99
2023-04-22T09:11:59.368Z,38.88
2023-04-22T09:14:27.776Z,38.89
2023-04-22T09:16:56.199Z,38.96
2023-04-22T09:19:26.859Z,38.89
2023-04-22T09:21:55.227Z,39.13
2023-04-22T09:24:23.638Z,39.21
2023-04-22T09:26:51.982Z,39.29
2023-04-22T09:29:20.450Z,39.31
2023-04-22T09:31:50.812Z,38.99
2023-04-22T09:34:19.293Z,39.33
2023-04-22T09:36:49.402Z,39.11
2023-04-22T09:39:18.120Z,39.33
2023-04-22T09:41:46.574Z,39.14
2023-04-22T09:44:18.126Z,39.20
2023-04-22T09:46:46.661Z,39.10
2023-04-22T09:49:15.061Z,39.02
2023-04-22T09:51:43.437Z,38.87
2023-04-22T09:54:13.334Z,38.94
2023-04-22T09:56:49.436Z,38.77
2023-04-22T09:59:22.257Z,39.05
2023-04-22T10:01:51.907Z,38.78
2023-04-22T10:04:23.408Z,38.95
2023-04-22T10:06:52.318Z,38.92
2023-04-22T10:09:25.014Z,39.16
2023-04-22T10:11:55.111Z,39.02
2023-04-22T10:14:23.735Z,39.00
2023-04-22T10:16:54.921Z,39.30
2023-04-22T10:19:24.627Z,39.27
2023-04-22T10:21:55.787Z,39.54
2023-04-22T10:24:27.981Z,39.50
2023-04-22T10:26:58.301Z,38.92
2023-04-22T10:29:28.342Z,39.00
2023-04-22T10:31:58.469Z,39.00
2023-04-22T10:34:26.893Z,39.30
2023-04-22T10:37:00.842Z,39.20
2023-04-22T10:39:30.896Z,39.00
2023-04-22T10:42:10.122Z,38.85
2023-04-22T10:44:49.928Z,39.22
2023-04-22T10:47:28.770Z,39.03
2023-04-22T10:50:22.089Z,38.84
2023-04-22T10:52:52.540Z,39.19
2023-04-22T10:55:22.570Z,38.78
2023-04-22T10:57:51.876Z,38.93
2023-04-22T11:03:14.827Z,38.99
2023-04-22T11:05:43.427Z,38.99
2023-04-22T11:08:16.670Z,39.10
2023-04-22T11:10:47.628Z,38.90
2023-04-22T11:13:17.013Z,38.69
2023-04-22T11:15:46.466Z,38.83
2023-04-22T11:18:24.994Z,38.65
2023-04-22T11:20:53.871Z,38.66
2023-04-22T11:23:25.711Z,38.98
2023-04-22T11:26:00.272Z,38.79
2023-04-22T11:28:28.773Z,38.62
2023-04-22T11:31:04.880Z,38.52
2023-04-22T11:33:34.747Z,38.76
2023-04-22T11:36:03.304Z,38.61
2023-04-22T11:38:31.887Z,38.88
2023-04-22T11:41:01.618Z,38.57
2023-04-22T11:43:29.978Z,38.83
2023-04-22T11:45:58.402Z,38.52
2023-04-22T11:48:26.904Z,38.61
2023-04-22T11:51:10.272Z,39.21
2023-04-22T11:53:39.642Z,39.34
2023-04-22T11:56:09.496Z,39.13
2023-04-22T11:58:40.239Z,39.18
2023-04-22T12:01:12.948Z,38.98
2023-04-22T12:03:42.212Z,39.17
2023-04-22T12:06:11.082Z,39.33
2023-04-22T12:08:42.622Z,39.27
2023-04-22T12:11:13.035Z,39.16
2023-04-22T12:13:43.537Z,38.85
2023-04-22T12:16:14.113Z,38.84
2023-04-22T12:18:43.470Z,39.11
2023-04-22T12:21:12.757Z,38.82
2023-04-22T12:23:44.483Z,38.70
2023-04-22T12:26:14.375Z,38.63
2023-04-22T12:28:43.501Z,38.81
2023-04-22T12:31:12.081Z,38.72
2023-04-22T12:33:41.034Z,38.46
2023-04-22T12:36:09.583Z,38.39
2023-04-22T12:38:38.149Z,38.00
2023-04-22T12:41:07.110Z,38.35
2023-04-22T12:43:37.834Z,38.13
2023-04-22T12:46:06.665Z,37.99
2023-04-22T12:48:36.121Z,37.84
2023-04-22T12:51:05.057Z,37.64
2023-04-22T12:53:33.509Z,38.14
2023-04-22T12:56:01.856Z,37.46
2023-04-22T12:58:30.248Z,37.30
2023-04-22T13:00:59.995Z,37.44
2023-04-22T13:03:28.701Z,37.66
2023-04-22T13:05:57.295Z,37.02
2023-04-22T13:08:26.080Z,36.98
2023-04-22T13:10:54.473Z,36.95
2023-04-22T13:13:22.938Z,36.91
2023-04-22T13:15:53.813Z,37.38
2023-04-22T13:18:24.505Z,36.56
2023-04-22T13:20:53.243Z,36.67
2023-04-22T13:23:22.194Z,36.99
2023-04-22T13:25:50.784Z,37.42
2023-04-22T13:28:19.209Z,37.43
2023-04-22T13:30:47.587Z,37.63
2023-04-22T13:33:15.988Z,37.31
2023-04-22T13:35:46.209Z,37.63
2023-04-22T13:38:14.729Z,37.06
2023-04-22T13:40:43.377Z,37.21
2023-04-22T13:43:11.780Z,37.85
2023-04-22T13:45:40.831Z,37.73
2023-04-22T13:48:09.269Z,38.40
2023-04-22T13:50:37.646Z,38.44
2023-04-22T13:53:10.223Z,38.48
2023-04-22T13:55:38.675Z,37.53
2023-04-22T13:58:07.785Z,38.20
2023-04-22T14:00:36.425Z,38.38
2023-04-22T14:03:05.114Z,38.08
2023-04-22T14:05:33.811Z,37.68
2023-04-22T14:08:02.201Z,38.01
2023-04-22T14:10:32.073Z,37.80
2023-04-22T14:13:00.577Z,37.97
2023-04-22T14:15:28.963Z,37.87
2023-04-22T14:17:57.414Z,37.42
2023-04-22T14:20:26.259Z,37.68
2023-04-22T14:22:54.692Z,37.48
2023-04-22T14:25:23.060Z,37.46
2023-04-22T14:27:52.825Z,37.31
2023-04-22T14:30:22.050Z,37.67
2023-04-22T14:32:50.740Z,37.36
2023-04-22T14:35:19.752Z,37.87
2023-04-22T14:37:48.189Z,37.62
2023-04-22T14:40:16.736Z,37.71
2023-04-22T14:42:45.170Z,37.36
2023-04-22T14:45:15.753Z,37.51
2023-04-22T14:47:44.172Z,37.53
2023-04-22T14:50:12.758Z,37.45
2023-04-22T14:52:41.143Z,37.20
2023-04-22T14:55:21.793Z,37.16
2023-04-22T14:57:51.607Z,37.35
2023-04-22T15:00:21.747Z,37.59
2023-04-22T15:02:50.271Z,37.29
2023-04-22T15:05:18.802Z,37.58
2023-04-22T15:07:47.213Z,37.36
2023-04-22T15:10:16.806Z,37.32
2023-04-22T15:12:45.516Z,37.40
2023-04-22T15:15:16.102Z,37.43
2023-04-22T15:17:46.310Z,37.32
2023-04-22T15:20:14.966Z,37.41
2023-04-22T15:22:43.364Z,37.32
2023-04-22T15:25:11.910Z,37.21
2023-04-22T15:27:40.582Z,37.61
2023-04-22T15:30:11.026Z,37.58
2023-04-22T15:32:40.176Z,37.19
2023-04-22T15:35:12.021Z,37.12
2023-04-22T15:37:40.497Z,37.36
2023-04-22T15:40:10.196Z,37.65
2023-04-22T15:42:38.604Z,37.25
2023-04-22T15:45:08.633Z,37.73
2023-04-22T15:47:37.409Z,37.76
2023-04-22T15:50:09.282Z,37.63
2023-04-22T15:52:39.574Z,37.96
2023-04-22T15:55:09.456Z,38.12
2023-04-22T15:57:38.018Z,38.16
2023-04-22T16:00:11.800Z,37.96
2023-04-22T16:02:41.720Z,38.00
2023-04-22T16:05:11.429Z,37.73
2023-04-22T16:07:41.396Z,38.05
2023-04-22T16:10:11.969Z,38.28
2023-04-22T16:12:40.443Z,37.77
2023-04-22T16:15:11.130Z,37.98
2023-04-22T16:17:39.761Z,38.18
2023-04-22T16:20:10.712Z,38.21
2023-04-22T16:22:40.575Z,38.20
2023-04-22T16:25:10.792Z,37.97
2023-04-22T16:27:39.204Z,38.12
2023-04-22T16:30:09.173Z,37.69
2023-04-22T16:32:37.699Z,37.94
2023-04-22T16:35:07.292Z,37.44
2023-04-22T16:37:36.806Z,37.78
2023-04-22T16:40:07.928Z,38.25
2023-04-22T16:42:36.388Z,38.25
2023-04-22T16:45:06.670Z,37.92
2023-04-22T16:47:35.144Z,38.21
2023-04-22T16:50:03.848Z,38.17
2023-04-22T16:52:32.274Z,38.13
2023-04-22T16:55:00.780Z,37.14
2023-04-22T16:57:30.576Z,37.13
2023-04-22T16:59:59.015Z,37.54
2023-04-22T17:02:27.514Z,37.91
2023-04-22T17:04:56.005Z,38.03
2023-04-22T17:07:24.420Z,37.91
2023-04-22T17:09:52.790Z,38.13
2023-04-22T17:12:21.201Z,38.00
2023-04-22T17:14:50.980Z,38.21
2023-04-22T17:17:19.412Z,37.82
2023-04-22T17:19:47.834Z,38.02
2023-04-22T17:22:16.300Z,38.24
2023-04-22T17:24:44.713Z,39.26
2023-04-22T17:27:15.145Z,39.23
2023-04-22T17:29:43.548Z,39.80
2023-04-22T17:32:13.359Z,39.79
2023-04-22T17:34:42.020Z,39.80
2023-04-22T17:37:10.709Z,39.58
2023-04-22T17:39:40.007Z,39.83
2023-04-22T17:42:08.473Z,39.69
2023-04-22T17:44:37.099Z,38.87
2023-04-22T17:47:07.461Z,39.76
2023-04-22T17:49:37.901Z,39.21
2023-04-22T17:52:06.466Z,38.84
2023-04-22T17:54:34.922Z,38.93
2023-04-22T17:57:04.119Z,39.68
2023-04-22T17:59:32.551Z,39.86
2023-04-22T18:02:01.697Z,39.57
2023-04-22T18:04:30.278Z,39.42
2023-04-22T18:07:00.023Z,39.81
2023-04-22T18:09:28.411Z,39.17
2023-04-22T18:11:58.659Z,38.94
2023-04-22T18:14:27.660Z,37.90
2023-04-22T18:16:56.198Z,35.52
2023-04-22T18:19:24.624Z,33.88
2023-04-22T18:22:00.038Z,32.61
2023-04-22T18:24:30.575Z,32.08
2023-04-22T18:26:59.063Z,30.47
2023-04-22T18:29:27.630Z,31.34
2023-04-22T18:31:56.270Z,31.17
2023-04-22T18:34:24.749Z,33.50
2023-04-22T18:36:53.153Z,34.47
2023-04-22T18:39:21.538Z,32.79
2023-04-22T18:41:51.615Z,33.75
2023-04-22T18:44:20.112Z,33.44
2023-04-22T18:46:48.610Z,34.56
2023-04-22T18:49:17.028Z,35.37
2023-04-22T18:51:47.591Z,34.80
2023-04-22T18:54:16.194Z,34.46
2023-04-22T18:56:45.996Z,34.46
2023-04-22T18:59:16.231Z,34.65
2023-04-22T19:01:44.725Z,35.40
2023-04-22T19:04:13.412Z,34.32
2023-04-22T19:06:41.994Z,34.85
2023-04-22T19:09:11.359Z,35.07
2023-04-22T19:11:40.050Z,35.45
2023-04-22T19:14:08.678Z,35.23
2023-04-22T19:16:38.470Z,35.17
2023-04-22T19:19:06.902Z,35.41
2023-04-22T19:21:35.292Z,33.85
2023-04-22T19:24:03.692Z,35.18
2023-04-22T19:26:32.366Z,35.31
2023-04-22T19:29:00.796Z,35.79
2023-04-22T19:31:29.459Z,36.07
2023-04-22T19:33:59.361Z,35.36
2023-04-22T19:36:28.329Z,35.40
2023-04-22T19:38:56.750Z,34.44
2023-04-22T19:41:25.482Z,36.37
2023-04-22T19:43:55.506Z,35.33
2023-04-22T19:46:23.963Z,35.52
2023-04-22T19:48:53.281Z,35.46
2023-04-22T19:51:23.116Z,36.37
2023-04-22T19:53:51.656Z,36.56
2023-04-22T19:56:20.064Z,35.13
2023-04-22T19:58:48.487Z,36.54
2023-04-22T20:01:17.455Z,36.81
2023-04-22T20:03:47.109Z,36.55
2023-04-22T20:06:15.670Z,37.18
2023-04-22T20:08:45.426Z,37.32
2023-04-22T20:11:15.223Z,36.31
2023-04-22T20:13:45.721Z,36.41
2023-04-22T20:16:19.364Z,36.41
2023-04-22T20:18:48.398Z,37.39
2023-04-22T20:21:16.840Z,37.52
2023-04-22T20:23:46.768Z,38.00
2023-04-22T20:26:15.390Z,37.60
2023-04-22T20:28:46.081Z,37.63
2023-04-22T20:31:14.747Z,37.77
2023-04-22T20:33:43.410Z,37.55
2023-04-22T20:36:12.836Z,37.55
2023-04-22T20:38:41.296Z,37.23
2023-04-22T20:41:13.402Z,37.30
2023-04-22T20:43:42.328Z,37.71
2023-04-22T20:46:11.012Z,37.12
2023-04-22T20:48:39.416Z,36.87
2023-04-22T20:51:08.151Z,36.29
2023-04-22T20:53:36.503Z,36.44
2023-04-22T20:56:06.118Z,36.76
2023-04-22T20:58:35.879Z,35.40
2023-04-22T21:01:04.410Z,36.81
2023-04-22T21:03:33.035Z,37.17
2023-04-22T21:06:01.719Z,36.93
2023-04-22T21:08:30.707Z,36.57
2023-04-22T21:10:59.904Z,37.09
2023-04-22T21:13:29.100Z,37.22
2023-04-22T21:16:00.491Z,37.09
2023-04-22T21:18:29.583Z,37.14
2023-04-22T21:20:58.283Z,36.70
2023-04-22T21:23:27.049Z,36.21
2023-04-22T21:25:55.863Z,36.49
2023-04-22T21:28:24.474Z,35.96
2023-04-22T21:30:53.522Z,36.39
2023-04-22T21:33:25.148Z,36.27
2023-04-22T21:35:55.440Z,36.54
2023-04-22T21:38:23.935Z,36.86
2023-04-22T21:40:52.331Z,36.57
2023-04-22T21:43:20.655Z,36.53
2023-04-22T21:45:49.105Z,36.66
2023-04-22T21:48:17.514Z,36.63
2023-04-22T21:50:47.337Z,36.57
2023-04-22T21:53:15.857Z,36.69
2023-04-22T21:55:44.252Z,36.80
2023-04-22T21:58:12.678Z,36.52
2023-04-22T22:00:41.134Z,36.82
2023-04-22T22:03:09.788Z,36.74
2023-04-22T22:05:38.198Z,36.73
2023-04-22T22:08:08.406Z,36.46
2023-04-22T22:10:37.326Z,36.75
2023-04-22T22:13:06.193Z,36.71
2023-04-22T22:15:34.856Z,36.51
2023-04-22T22:18:04.322Z,36.37
2023-04-22T22:20:33.002Z,36.55
2023-04-22T22:23:01.397Z,36.34
2023-04-22T22:25:31.179Z,36.04
2023-04-22T22:27:59.527Z,35.97
2023-04-22T22:30:28.013Z,36.14
2023-04-22T22:32:56.419Z,34.66
2023-04-22T22:35:24.887Z,35.18
2023-04-22T22:37:53.247Z,34.93
2023-04-22T22:40:21.756Z,34.11
2023-04-22T22:42:51.543Z,34.15
2023-04-22T22:45:19.940Z,34.59
2023-04-22T22:47:48.327Z,34.78
2023-04-22T22:50:16.812Z,34.84
2023-04-22T22:52:45.164Z,34.99
2023-04-22T22:55:13.900Z,34.32
2023-04-22T22:57:42.328Z,34.12
2023-04-22T23:00:13.809Z,33.69
2023-04-22T23:02:42.480Z,34.79
2023-04-22T23:05:11.281Z,33.68
2023-04-22T23:07:39.716Z,33.70
2023-04-22T23:10:10.059Z,33.71
2023-04-22T23:12:38.564Z,33.89
2023-04-22T23:15:09.003Z,33.71
2023-04-22T23:17:39.073Z,33.58
2023-04-22T23:20:10.996Z,33.54
2023-04-22T23:22:40.398Z,33.73
2023-04-22T23:25:10.704Z,33.95
2023-04-22T23:27:39.791Z,33.29
2023-04-22T23:30:09.955Z,33.31
2023-04-22T23:32:40.769Z,33.60
2023-04-22T23:35:11.672Z,32.64
2023-04-22T23:37:40.117Z,32.90
2023-04-22T23:40:10.853Z,32.92
2023-04-22T23:42:39.242Z,32.46
2023-04-22T23:45:09.346Z,32.78
2023-04-22T23:47:39.141Z,32.23
2023-04-22T23:50:09.134Z,32.54
2023-04-22T23:52:41.133Z,32.23
2023-04-22T23:55:11.790Z,32.13
2023-04-22T23:57:40.757Z,32.58
